createdAt,value
2018-11-11T00:00:10.402Z,99859.75
2018-11-11T00:02:39.109Z,99866.06
2018-11-11T00:05:09.302Z,99868.21
2018-11-11T00:07:38.021Z,99863.08
2018-11-11T00:10:21.644Z,99862.28
2018-11-11T00:12:50.608Z,99870.33
2018-11-11T00:15:19.904Z,99868.83
2018-11-11T00:17:48.960Z,99869.30
2018-11-11T00:20:17.761Z,99881.14
2018-11-11T00:22:46.485Z,99869.36
2018-11-11T00:25:15.185Z,99882.09
2018-11-11T00:27:43.871Z,99885.31
2018-11-11T00:30:18.059Z,99882.70
2018-11-11T00:32:46.768Z,99877.83
2018-11-11T00:35:15.514Z,99867.97
2018-11-11T00:37:44.212Z,99863.20
2018-11-11T00:40:14.132Z,99860.44
2018-11-11T00:42:43.744Z,99857.69
2018-11-11T00:45:13.273Z,99864.73
2018-11-11T00:47:42.856Z,99869.27
2018-11-11T00:50:12.237Z,99865.95
2018-11-11T00:52:40.967Z,99871.91
2018-11-11T00:55:13.045Z,99870.61
2018-11-11T00:57:42.322Z,99876.73
2018-11-11T01:00:12.960Z,99870.94
2018-11-11T01:02:42.464Z,99872.63
2018-11-11T01:05:11.993Z,99865.86
2018-11-11T01:07:41.356Z,99870.40
2018-11-11T01:10:12.747Z,99870.78
2018-11-11T01:12:42.772Z,99868.91
2018-11-11T01:15:12.884Z,99874.75
2018-11-11T01:17:41.606Z,99869.80
2018-11-11T01:20:13.225Z,99862.56
2018-11-11T01:22:42.112Z,99870.05
2018-11-11T01:25:12.744Z,99872.43
2018-11-11T01:27:42.578Z,99873.63
2018-11-11T01:30:11.289Z,99870.73
2018-11-11T01:32:40.062Z,99871.58
2018-11-11T01:35:11.272Z,99870.18
2018-11-11T01:37:40.520Z,99872.05
2018-11-11T01:40:09.728Z,99875.64
2018-11-11T01:42:38.556Z,99881.20
2018-11-11T01:45:10.801Z,99878.45
2018-11-11T01:47:39.770Z,99884.28
2018-11-11T01:50:09.360Z,99882.13
2018-11-11T01:52:38.695Z,99869.99
2018-11-11T01:55:07.603Z,99870.50
2018-11-11T01:57:36.327Z,99869.91
2018-11-11T02:00:06.565Z,99871.21
2018-11-11T02:02:35.251Z,99868.22
2018-11-11T02:05:05.256Z,99870.83
2018-11-11T02:07:33.969Z,99881.91
2018-11-11T02:10:04.041Z,99886.30
2018-11-11T02:12:52.007Z,99880.97
2018-11-11T02:15:21.372Z,99885.13
2018-11-11T02:17:50.889Z,99883.48
2018-11-11T02:20:20.599Z,99873.72
2018-11-11T02:22:50.459Z,99864.20
2018-11-11T02:25:19.134Z,99860.27
2018-11-11T02:27:47.916Z,99862.33
2018-11-11T02:30:18.939Z,99849.58
2018-11-11T02:32:48.682Z,99855.04
2018-11-11T02:35:17.393Z,99858.04
2018-11-11T02:37:46.249Z,99860.66
2018-11-11T02:40:18.983Z,99853.41
2018-11-11T02:42:48.101Z,99855.70
2018-11-11T02:45:17.771Z,99856.45
2018-11-11T02:47:46.500Z,99858.66
2018-11-11T02:50:17.296Z,99854.65
2018-11-11T02:52:47.180Z,99862.50
2018-11-11T02:55:16.501Z,99858.80
2018-11-11T02:57:45.808Z,99859.18
2018-11-11T03:00:17.392Z,99860.86
2018-11-11T03:02:46.662Z,99853.52
2018-11-11T03:05:17.087Z,99856.47
2018-11-11T03:07:45.789Z,99857.22
2018-11-11T03:10:16.313Z,99858.05
2018-11-11T03:12:45.695Z,99862.78
2018-11-11T03:15:14.996Z,99863.48
2018-11-11T03:17:44.255Z,99855.91
2018-11-11T03:20:13.602Z,99855.77
2018-11-11T03:22:42.350Z,99850.20
2018-11-11T03:25:17.992Z,99847.45
2018-11-11T03:27:47.554Z,99849.00
2018-11-11T03:30:17.277Z,99851.62
2018-11-11T03:32:46.546Z,99859.27
2018-11-11T03:35:15.531Z,99862.22
2018-11-11T03:37:45.015Z,99866.74
2018-11-11T03:40:15.474Z,99869.97
2018-11-11T03:42:44.459Z,99866.92
2018-11-11T03:45:14.911Z,99861.45
2018-11-11T03:47:44.600Z,99862.43
2018-11-11T03:50:13.317Z,99863.37
2018-11-11T03:52:42.243Z,99860.42
2018-11-11T03:55:11.269Z,99861.36
2018-11-11T03:57:41.211Z,99867.16
2018-11-11T04:00:11.414Z,99868.97
2018-11-11T04:02:41.013Z,99867.43
2018-11-11T04:05:11.037Z,99864.11
2018-11-11T04:07:40.836Z,99866.69
2018-11-11T04:10:12.450Z,99862.30
2018-11-11T04:12:41.392Z,99864.20
2018-11-11T04:15:11.931Z,99859.92
2018-11-11T04:17:40.720Z,99867.26
2018-11-11T04:20:11.349Z,99867.26
2018-11-11T04:22:40.045Z,99865.10
2018-11-11T04:25:08.835Z,99865.44
2018-11-11T04:27:37.564Z,99868.62
2018-11-11T04:30:06.960Z,99861.00
2018-11-11T04:32:35.681Z,99854.47
2018-11-11T04:35:06.447Z,99863.71
2018-11-11T04:37:35.149Z,99860.58
2018-11-11T04:40:06.651Z,99849.64
2018-11-11T04:42:35.356Z,99848.81
2018-11-11T04:45:04.064Z,99857.75
2018-11-11T04:47:32.802Z,99847.85
2018-11-11T04:50:01.916Z,99861.77
2018-11-11T04:52:30.625Z,99855.42
2018-11-11T04:54:59.339Z,99858.88
2018-11-11T04:57:28.054Z,99852.79
2018-11-11T04:59:56.749Z,99865.27
2018-11-11T05:02:25.456Z,99870.50
2018-11-11T05:04:54.899Z,99869.09
2018-11-11T05:07:24.537Z,99879.29
2018-11-11T05:09:53.251Z,99875.12
2018-11-11T05:12:22.709Z,99873.31
2018-11-11T05:14:51.419Z,99877.60
2018-11-11T05:17:20.732Z,99873.20
2018-11-11T05:19:49.449Z,99871.75
2018-11-11T05:22:18.156Z,99876.16
2018-11-11T05:24:46.903Z,99879.61
2018-11-11T05:27:15.608Z,99869.47
2018-11-11T05:29:44.309Z,99871.20
2018-11-11T05:32:13.024Z,99879.05
2018-11-11T05:34:41.740Z,99874.14
2018-11-11T05:37:10.441Z,99879.61
2018-11-11T05:39:39.148Z,99870.31
2018-11-11T05:42:07.884Z,99870.67
2018-11-11T05:44:36.596Z,99878.63
2018-11-11T05:47:05.613Z,99878.02
2018-11-11T05:49:35.084Z,99880.87
2018-11-11T05:52:04.938Z,99878.11
2018-11-11T05:54:34.743Z,99880.73
2018-11-11T05:57:03.478Z,99880.03
2018-11-11T05:59:32.273Z,99877.08
2018-11-11T06:02:01.008Z,99885.96
2018-11-11T06:04:29.788Z,99890.95
2018-11-11T06:06:58.494Z,99889.28
2018-11-11T06:09:27.226Z,99892.03
2018-11-11T06:11:55.961Z,99891.20
2018-11-11T06:14:24.673Z,99891.34
2018-11-11T06:16:53.364Z,99894.31
2018-11-11T06:19:22.086Z,99896.66
2018-11-11T06:21:50.827Z,99887.50
2018-11-11T06:24:19.539Z,99895.96
2018-11-11T06:26:48.662Z,99897.41
2018-11-11T06:29:18.523Z,99895.34
2018-11-11T06:31:47.372Z,99902.03
2018-11-11T06:34:16.612Z,99898.34
2018-11-11T06:36:46.244Z,99900.02
2018-11-11T06:39:14.999Z,99906.70
2018-11-11T06:41:44.344Z,99904.70
2018-11-11T06:44:13.048Z,99913.44
2018-11-11T06:46:41.763Z,99914.28
2018-11-11T06:49:10.480Z,99907.59
2018-11-11T06:51:39.187Z,99915.95
2018-11-11T06:54:07.919Z,99914.89
2018-11-11T06:56:36.656Z,99918.81
2018-11-11T06:59:06.077Z,99921.25
2018-11-11T07:01:34.799Z,99921.00
2018-11-11T07:04:06.518Z,99922.92
2018-11-11T07:06:35.212Z,99935.40
2018-11-11T07:09:05.840Z,99932.08
2018-11-11T07:11:34.544Z,99933.63
2018-11-11T07:14:03.313Z,99936.72
2018-11-11T07:16:31.984Z,99939.84
2018-11-11T07:19:01.529Z,99940.45
2018-11-11T07:21:30.236Z,99942.70
2018-11-11T07:23:58.951Z,99948.30
2018-11-11T07:26:27.964Z,99938.34
2018-11-11T07:28:56.691Z,99945.58
2018-11-11T07:31:26.535Z,99951.52
2018-11-11T07:33:55.266Z,99955.58
2018-11-11T07:36:25.592Z,99973.06
2018-11-11T07:38:54.312Z,99969.50
2018-11-11T07:41:23.036Z,99971.66
2018-11-11T07:43:51.772Z,99974.30
2018-11-11T07:46:20.468Z,99982.98
2018-11-11T07:48:49.179Z,99986.67
2018-11-11T07:51:18.180Z,99995.36
2018-11-11T07:53:46.865Z,99984.93
2018-11-11T07:56:15.594Z,99998.38
2018-11-11T07:58:44.324Z,99988.41
2018-11-11T08:01:13.370Z,99992.20
2018-11-11T08:03:42.072Z,99989.72
2018-11-11T08:06:11.547Z,99995.88
2018-11-11T08:08:40.400Z,99995.78
2018-11-11T08:11:20.719Z,99992.72
2018-11-11T08:13:50.475Z,99987.96
2018-11-11T08:16:19.193Z,100001.88
2018-11-11T08:18:47.911Z,99998.89
2018-11-11T08:21:16.696Z,100004.12
2018-11-11T08:23:45.387Z,100000.09
2018-11-11T08:26:14.112Z,100004.70
2018-11-11T08:28:42.805Z,100004.70
2018-11-11T08:31:12.369Z,99998.50
2018-11-11T08:33:41.076Z,100006.61
2018-11-11T08:36:09.798Z,100007.08
2018-11-11T08:38:39.214Z,100007.89
2018-11-11T08:41:08.189Z,100008.25
2018-11-11T08:43:36.905Z,100014.56
2018-11-11T08:46:06.459Z,100015.60
2018-11-11T08:48:35.233Z,100019.77
2018-11-11T08:51:06.082Z,100016.08
2018-11-11T08:53:34.807Z,100026.06
2018-11-11T08:56:23.973Z,100018.22
2018-11-11T08:58:52.672Z,100013.56
2018-11-11T09:01:21.828Z,100025.20
2018-11-11T09:03:50.879Z,100026.48
2018-11-11T09:06:19.711Z,100024.91
2018-11-11T09:08:49.281Z,100028.27
2018-11-11T09:11:18.076Z,100034.30
2018-11-11T09:13:47.416Z,100037.49
2018-11-11T09:16:16.392Z,100034.13
2018-11-11T09:18:45.963Z,100036.62
2018-11-11T09:21:14.728Z,100038.86
2018-11-11T09:23:43.492Z,100041.82
2018-11-11T09:26:12.191Z,100044.80
2018-11-11T09:28:40.948Z,100047.98
2018-11-11T09:31:09.736Z,100049.53
2018-11-11T09:33:38.646Z,100048.32
2018-11-11T09:36:08.120Z,100046.27
2018-11-11T09:38:36.805Z,100053.98
2018-11-11T09:41:06.373Z,100060.77
2018-11-11T09:43:35.080Z,100057.41
2018-11-11T09:46:05.573Z,100057.46
2018-11-11T09:48:34.312Z,100069.94
2018-11-11T09:51:03.053Z,100060.26
2018-11-11T09:56:12.013Z,100066.58
2018-11-11T09:58:40.817Z,100062.64
2018-11-11T10:01:09.744Z,100076.16
2018-11-11T10:03:42.354Z,100068.48
2018-11-11T10:06:19.304Z,100070.11
2018-11-11T10:08:53.378Z,100067.29
2018-11-11T10:11:27.841Z,100073.31
2018-11-11T10:16:02.872Z,100062.11
2018-11-11T10:18:36.868Z,100065.27
2018-11-11T10:21:10.978Z,100065.18
2018-11-11T10:23:43.588Z,100067.89
2018-11-11T10:28:24.468Z,100072.84
2018-11-11T10:30:58.979Z,100071.53
2018-11-11T10:33:39.181Z,100073.91
2018-11-11T10:36:13.671Z,100082.70
2018-11-11T10:38:53.248Z,100073.02
2018-11-11T10:41:26.049Z,100075.02
2018-11-11T10:43:58.057Z,100085.17
2018-11-11T10:46:31.760Z,100072.40
2018-11-11T10:49:04.864Z,100078.23
2018-11-11T10:51:33.579Z,100077.64
2018-11-11T10:54:02.425Z,100076.55
2018-11-11T11:05:10.279Z,100095.30
2018-11-11T11:07:38.995Z,100100.41
2018-11-11T11:10:08.611Z,100102.71
2018-11-11T11:12:37.372Z,100121.99
2018-11-11T11:15:07.614Z,100123.16
2018-11-11T11:17:36.355Z,100123.58
2018-11-11T11:20:05.365Z,100129.27
2018-11-11T11:22:34.102Z,100133.42
2018-11-11T11:25:02.832Z,100135.54
2018-11-11T11:27:31.592Z,100139.37
2018-11-11T11:30:00.678Z,100143.78
2018-11-11T11:32:29.436Z,100141.41
2018-11-11T11:34:58.632Z,100135.43
2018-11-11T11:37:27.940Z,100135.62
2018-11-11T11:39:56.655Z,100139.55
2018-11-11T11:42:25.364Z,100152.42
2018-11-11T11:44:54.092Z,100147.09
2018-11-11T11:47:23.509Z,100153.19
2018-11-11T11:49:52.256Z,100147.03
2018-11-11T11:52:22.209Z,100138.69
2018-11-11T11:54:50.888Z,100143.03
2018-11-11T11:57:19.624Z,100142.92
2018-11-11T11:59:48.363Z,100139.31
2018-11-11T12:02:17.308Z,100141.54
2018-11-11T12:04:45.988Z,100140.16
2018-11-11T12:07:14.687Z,100143.14
2018-11-11T12:09:43.430Z,100145.48
2018-11-11T12:12:12.153Z,100143.69
2018-11-11T12:14:40.896Z,100151.12
2018-11-11T12:17:09.703Z,100162.33
2018-11-11T12:19:38.365Z,100156.97
2018-11-11T12:22:07.640Z,100162.15
2018-11-11T12:24:36.609Z,100162.00
2018-11-11T12:27:05.594Z,100157.73
2018-11-11T12:29:46.858Z,100160.00
2018-11-11T12:32:15.564Z,100152.59
2018-11-11T12:34:44.420Z,100161.53
2018-11-11T12:37:13.142Z,100155.58
2018-11-11T12:39:41.900Z,100146.94
2018-11-11T12:42:10.568Z,100154.20
2018-11-11T12:44:39.683Z,100153.22
2018-11-11T12:47:08.431Z,100153.22
2018-11-11T12:49:37.132Z,100159.92
2018-11-11T12:52:05.880Z,100171.88
2018-11-11T12:54:34.604Z,100171.59
2018-11-11T12:57:03.340Z,100155.29
2018-11-11T12:59:32.062Z,100143.77
2018-11-11T13:02:00.817Z,100146.32
2018-11-11T13:04:29.588Z,100152.55
2018-11-11T13:06:58.502Z,100161.23
2018-11-11T13:09:27.649Z,100163.75
2018-11-11T13:11:56.415Z,100157.19
2018-11-11T13:14:25.283Z,100152.63
2018-11-11T13:16:54.384Z,100155.44
2018-11-11T13:19:23.725Z,100156.75
2018-11-11T13:21:52.412Z,100150.08
2018-11-11T13:24:21.133Z,100154.97
2018-11-11T13:26:50.459Z,100157.95
2018-11-11T13:29:19.184Z,100160.58
2018-11-11T13:31:48.623Z,100161.53
2018-11-11T13:34:17.340Z,100158.42
2018-11-11T13:36:47.075Z,100170.03
2018-11-11T13:39:15.796Z,100170.80
2018-11-11T13:41:44.522Z,100167.40
2018-11-11T13:44:13.276Z,100177.68
2018-11-11T13:46:42.162Z,100184.02
2018-11-11T13:49:10.999Z,100191.20
2018-11-11T13:51:39.734Z,100184.85
2018-11-11T13:54:08.508Z,100195.41
2018-11-11T13:56:38.640Z,100198.29
2018-11-11T13:59:08.766Z,100198.35
2018-11-11T14:01:37.544Z,100202.45
2018-11-11T14:04:06.709Z,100198.25
2018-11-11T14:06:35.588Z,100197.46
2018-11-11T14:09:09.252Z,100192.13
2018-11-11T14:11:38.276Z,100183.05
2018-11-11T14:14:07.230Z,100182.64
2018-11-11T14:16:35.988Z,100188.97
2018-11-11T14:19:05.373Z,100193.52
2018-11-11T14:21:34.002Z,100189.64
2018-11-11T14:24:03.044Z,100191.00
2018-11-11T14:26:32.412Z,100203.41
2018-11-11T14:29:01.265Z,100204.92
2018-11-11T14:31:29.936Z,100218.31
2018-11-11T14:33:58.657Z,100231.66
2018-11-11T14:36:27.364Z,100225.98
2018-11-11T14:38:56.776Z,100215.74
2018-11-11T14:41:25.484Z,100221.73
2018-11-11T14:43:54.201Z,100244.72
2018-11-11T14:46:22.937Z,100245.20
2018-11-11T14:48:52.257Z,100242.84
2018-11-11T14:51:20.972Z,100252.16
2018-11-11T14:53:50.185Z,100253.84
2018-11-11T14:56:18.904Z,100253.48
2018-11-11T14:58:48.410Z,100255.87
2018-11-11T15:01:17.030Z,100264.34
2018-11-11T15:03:45.865Z,100264.20
2018-11-11T15:06:14.785Z,100259.59
2018-11-11T15:08:43.536Z,100262.22
2018-11-11T15:11:12.940Z,100263.39
2018-11-11T15:13:42.344Z,100255.91
2018-11-11T15:16:11.299Z,100239.00
2018-11-11T15:18:40.005Z,100248.55
2018-11-11T15:21:09.526Z,100250.56
2018-11-11T15:23:38.174Z,100236.89
2018-11-11T15:26:08.236Z,100230.24
2018-11-11T15:28:36.956Z,100234.67
2018-11-11T15:31:06.706Z,100248.95
2018-11-11T15:33:35.260Z,100247.78
2018-11-11T15:36:04.975Z,100250.30
2018-11-11T15:38:33.696Z,100257.72
2018-11-11T15:41:02.431Z,100264.97
2018-11-11T15:43:32.540Z,100272.46
2018-11-11T15:46:01.224Z,100279.98
2018-11-11T15:48:29.934Z,100284.28
2018-11-11T15:50:58.636Z,100295.96
2018-11-11T15:53:33.983Z,100302.42
2018-11-11T15:56:03.592Z,100296.23
2018-11-11T15:58:32.315Z,100301.36
2018-11-11T16:01:01.138Z,100304.45
2018-11-11T16:03:29.856Z,100317.78
2018-11-11T16:05:58.552Z,100323.27
2018-11-11T16:08:27.260Z,100331.00
2018-11-11T16:10:55.976Z,100333.25
2018-11-11T16:13:24.697Z,100326.70
2018-11-11T16:15:53.423Z,100329.70
2018-11-11T16:18:22.154Z,100324.69
2018-11-11T16:20:50.873Z,100327.67
2018-11-11T16:23:19.651Z,100329.70
2018-11-11T16:25:48.333Z,100328.73
2018-11-11T16:28:17.044Z,100325.52
2018-11-11T16:30:46.492Z,100321.24
2018-11-11T16:33:15.437Z,100313.38
2018-11-11T16:35:44.099Z,100310.39
2018-11-11T16:38:13.444Z,100310.17
2018-11-11T16:40:42.236Z,100321.84
2018-11-11T16:43:10.881Z,100316.96
2018-11-11T16:45:39.608Z,100313.16
2018-11-11T16:48:08.996Z,100318.28
2018-11-11T16:50:38.259Z,100331.47
2018-11-11T16:53:08.300Z,100324.72
2018-11-11T16:55:37.531Z,100332.80
2018-11-11T16:58:06.528Z,100338.28
2018-11-11T17:00:48.231Z,100346.36
2018-11-11T17:03:16.956Z,100356.37
2018-11-11T17:05:46.417Z,100354.81
2018-11-11T17:08:15.144Z,100350.30
2018-11-11T17:10:43.883Z,100351.23
2018-11-11T17:13:13.664Z,100351.96
2018-11-11T17:15:42.421Z,100354.59
2018-11-11T17:18:11.134Z,100355.64
2018-11-11T17:20:39.941Z,100352.69
2018-11-11T17:23:09.656Z,100347.80
2018-11-11T17:25:38.407Z,100335.06
2018-11-11T17:28:07.944Z,100331.98
2018-11-11T17:30:36.583Z,100339.30
2018-11-11T17:33:06.380Z,100346.22
2018-11-11T17:35:35.052Z,100355.84
2018-11-11T17:38:03.795Z,100354.66
2018-11-11T17:40:32.538Z,100370.70
2018-11-11T17:43:01.782Z,100386.02
2018-11-11T17:45:30.512Z,100389.60
2018-11-11T17:47:59.235Z,100402.89
2018-11-11T17:50:29.910Z,100397.78
2018-11-11T17:52:59.288Z,100389.00
2018-11-11T17:55:29.462Z,100388.50
2018-11-11T17:57:58.113Z,100398.37
2018-11-11T18:00:27.908Z,100371.24
2018-11-11T18:02:57.234Z,100378.41
2018-11-11T18:05:27.979Z,100391.23
2018-11-11T18:07:57.334Z,100399.80
2018-11-11T18:10:26.504Z,100400.14
2018-11-11T18:12:55.265Z,100397.53
2018-11-11T18:15:25.349Z,100396.84
2018-11-11T18:17:54.112Z,100412.04
2018-11-11T18:20:24.149Z,100413.34
2018-11-11T18:25:52.404Z,100424.27
2018-11-11T18:28:21.214Z,100432.56
2018-11-11T18:30:50.545Z,100437.93
2018-11-11T18:33:19.252Z,100450.66
2018-11-11T18:35:48.072Z,100457.55
2018-11-11T18:38:17.036Z,100457.45
2018-11-11T18:40:46.417Z,100460.75
2018-11-11T18:43:15.136Z,100456.22
2018-11-11T18:45:43.932Z,100466.09
2018-11-11T18:48:12.599Z,100469.16
2018-11-11T18:50:41.304Z,100454.78
2018-11-11T18:53:10.028Z,100452.42
2018-11-11T18:55:38.748Z,100460.61
2018-11-11T18:58:07.444Z,100462.41
2018-11-11T19:00:36.157Z,100451.11
2018-11-11T19:03:05.182Z,100458.58
2018-11-11T19:05:33.885Z,100470.33
2018-11-11T19:08:02.716Z,100473.19
2018-11-11T19:10:32.879Z,100468.42
2018-11-11T19:13:02.937Z,100474.37
2018-11-11T19:15:32.276Z,100478.73
2018-11-11T19:18:01.552Z,100479.78
2018-11-11T19:20:30.710Z,100492.13
2018-11-11T19:22:59.420Z,100489.03
2018-11-11T19:25:29.176Z,100486.30
2018-11-11T19:27:58.757Z,100489.96
2018-11-11T19:30:28.268Z,100490.55
2018-11-11T19:32:56.936Z,100490.55
2018-11-11T19:35:26.228Z,100493.63
2018-11-11T19:37:55.784Z,100512.64
2018-11-11T19:40:36.681Z,100503.27
2018-11-11T19:43:05.417Z,100510.84
2018-11-11T19:45:34.148Z,100497.20
2018-11-11T19:48:02.943Z,100496.00
2018-11-11T19:50:32.451Z,100509.16
2018-11-11T19:53:01.380Z,100509.28
2018-11-11T19:55:30.098Z,100514.73
2018-11-11T19:57:58.828Z,100517.70
2018-11-11T20:00:28.984Z,100526.38
2018-11-11T20:02:59.197Z,100522.81
2018-11-11T20:05:27.921Z,100521.77
2018-11-11T20:07:57.617Z,100530.59
2018-11-11T20:10:27.424Z,100529.75
2018-11-11T20:12:56.284Z,100521.79
2018-11-11T20:15:27.132Z,100539.16
2018-11-11T20:17:55.888Z,100555.83
2018-11-11T20:20:27.204Z,100552.64
2018-11-11T20:22:56.629Z,100551.91
2018-11-11T20:25:25.344Z,100557.72
2018-11-11T20:27:54.595Z,100558.38
2018-11-11T20:30:24.565Z,100556.94
2018-11-11T20:32:53.366Z,100565.93
2018-11-11T20:35:23.487Z,100566.89
2018-11-11T20:38:06.545Z,100570.95
2018-11-11T20:40:35.734Z,100579.15
2018-11-11T20:43:05.292Z,100581.77
2018-11-11T20:45:34.598Z,100574.27
2018-11-11T20:48:03.868Z,100577.46
2018-11-11T20:50:33.534Z,100576.97
2018-11-11T20:53:03.385Z,100576.81
2018-11-11T20:55:32.141Z,100579.66
2018-11-11T20:58:01.035Z,100583.47
2018-11-11T21:00:34.986Z,100593.19
2018-11-11T21:03:11.922Z,100596.64
2018-11-11T21:05:41.767Z,100594.72
2018-11-11T21:08:10.529Z,100592.84
2018-11-11T21:10:41.155Z,100585.47
2018-11-11T21:13:10.231Z,100591.84
2018-11-11T21:15:38.936Z,100588.66
2018-11-11T21:18:08.220Z,100599.56
2018-11-11T21:20:36.962Z,100606.68
2018-11-11T21:23:07.068Z,100620.89
2018-11-11T21:25:35.892Z,100618.51
2018-11-11T21:28:04.780Z,100610.55
2018-11-11T21:30:33.780Z,100603.56
2018-11-11T21:33:02.504Z,100599.27
2018-11-11T21:35:31.288Z,100596.38
2018-11-11T21:38:00.187Z,100596.38
2018-11-11T21:40:28.870Z,100598.60
2018-11-11T21:42:58.066Z,100596.45
2018-11-11T21:45:28.018Z,100600.10
2018-11-11T21:47:56.787Z,100599.53
2018-11-11T21:50:26.349Z,100602.87
2018-11-11T21:53:02.211Z,100599.41
2018-11-11T21:55:30.879Z,100588.97
2018-11-11T21:57:59.600Z,100598.48
2018-11-11T22:00:28.327Z,100612.75
2018-11-11T22:02:57.103Z,100616.05
2018-11-11T22:05:25.802Z,100623.50
2018-11-11T22:07:54.936Z,100630.03
2018-11-11T22:10:23.665Z,100644.40
2018-11-11T22:12:53.255Z,100647.97
2018-11-11T22:15:22.247Z,100648.81
2018-11-11T22:17:50.981Z,100653.54
2018-11-11T22:20:20.309Z,100666.71
2018-11-11T22:22:55.267Z,100668.41
2018-11-11T22:25:24.013Z,100667.33
2018-11-11T22:27:52.761Z,100658.69
2018-11-11T22:30:21.464Z,100656.31
2018-11-11T22:32:50.220Z,100646.70
2018-11-11T22:35:18.951Z,100656.31
2018-11-11T22:37:47.665Z,100652.97
2018-11-11T22:40:16.428Z,100664.99
2018-11-11T22:42:45.145Z,100666.88
2018-11-11T22:45:14.804Z,100677.33
2018-11-11T22:47:43.532Z,100682.08
2018-11-11T22:50:14.399Z,100690.84
2018-11-11T22:52:43.206Z,100690.77
2018-11-11T22:55:12.849Z,100690.27
2018-11-11T22:57:42.456Z,100694.92
2018-11-11T23:00:18.221Z,100705.76
2018-11-11T23:02:46.975Z,100703.50
2018-11-11T23:05:16.684Z,100705.76
2018-11-11T23:07:45.556Z,100719.39
2018-11-11T23:10:14.858Z,100721.27
2018-11-11T23:12:43.604Z,100730.14
2018-11-11T23:15:13.544Z,100716.80
2018-11-11T23:17:42.318Z,100714.77
2018-11-11T23:20:12.704Z,100723.17
2018-11-11T23:22:41.996Z,100725.78
2018-11-11T23:25:12.220Z,100724.48
2018-11-11T23:27:41.140Z,100713.45
2018-11-11T23:30:12.177Z,100722.60
2018-11-11T23:32:40.937Z,100729.30
2018-11-11T23:35:10.171Z,100739.17
2018-11-11T23:37:39.128Z,100745.98
2018-11-11T23:40:09.912Z,100744.38
2018-11-11T23:42:38.852Z,100748.19
2018-11-11T23:45:08.071Z,100752.10
2018-11-11T23:47:37.063Z,100758.91
2018-11-11T23:50:09.912Z,100759.64
2018-11-11T23:52:38.907Z,100769.06
2018-11-11T23:55:08.940Z,100769.23
2018-11-11T23:57:37.687Z,100761.85
